Time;durP1;ratioP1;P1;durP2;ratioP2;P2;SDS_P1;SDS_P2;PMS_P1;PMS_P2;Temp;Humidity;BMP_temperature;BMP_pressure;BME280_temperature;BME280_humidity;BME280_pressure;Samples;Min_cycle;Max_cycle;Signal;HPM_P1;HPM_P2
2022/03/23 00:01:26;;;;;;;26.55;11.07;;;8.40;49.60;;;;;;5078090;27;20060;-75
2022/03/23 00:03:53;;;;;;;27.30;10.90;;;8.50;49.20;;;;;;5049920;27;22305;-75
2022/03/23 00:06:22;;;;;;;23.13;9.75;;;8.60;49.00;;;;;;5052791;27;21021;-75
2022/03/23 00:08:50;;;;;;;27.23;11.10;;;8.40;49.00;;;;;;5056465;27;20804;-74
2022/03/23 00:11:17;;;;;;;29.17;10.85;;;8.30;49.20;;;;;;5062476;27;20074;-74
2022/03/23 00:13:44;;;;;;;22.55;9.48;;;8.30;49.10;;;;;;5085607;27;20126;-75
2022/03/23 00:16:11;;;;;;;25.63;10.15;;;8.40;49.40;;;;;;5080585;27;20917;-74
2022/03/23 00:18:39;;;;;;;30.27;12.15;;;8.20;49.60;;;;;;5066303;27;20130;-75
2022/03/23 00:21:06;;;;;;;22.80;9.35;;;8.30;49.80;;;;;;5063951;27;20187;-74
2022/03/23 00:23:33;;;;;;;21.73;9.00;;;8.30;49.30;;;;;;5064790;27;20050;-74
2022/03/23 00:26:00;;;;;;;18.27;7.95;;;8.30;49.50;;;;;;5065007;28;20062;-74
2022/03/23 00:28:27;;;;;;;16.95;8.52;;;8.10;49.80;;;;;;5081832;27;20047;-75
2022/03/23 00:30:55;;;;;;;18.10;8.20;;;8.20;48.90;;;;;;5084108;27;20047;-74
2022/03/23 00:33:29;;;;;;;19.90;8.73;;;8.20;49.30;;;;;;5066723;27;20043;-74
2022/03/23 00:35:56;;;;;;;19.83;8.40;;;8.20;49.10;;;;;;5066541;27;20051;-76
2022/03/23 00:38:23;;;;;;;16.80;8.05;;;8.10;49.40;;;;;;5074550;27;20051;-76
2022/03/23 00:40:51;;;;;;;23.10;8.75;;;8.10;49.30;;;;;;5068754;27;20047;-75
2022/03/23 00:43:18;;;;;;;15.82;7.63;;;8.10;49.80;;;;;;5051899;28;20055;-75
2022/03/23 00:45:45;;;;;;;16.20;7.50;;;8.10;49.80;;;;;;5055637;27;20057;-75
2022/03/23 00:48:13;;;;;;;16.30;7.22;;;8.00;49.40;;;;;;5066380;27;21140;-75
2022/03/23 00:50:40;;;;;;;18.02;7.70;;;8.00;49.30;;;;;;5053424;27;20425;-75
2022/03/23 00:53:08;;;;;;;19.02;7.40;;;8.20;49.00;;;;;;5068922;28;20047;-75
2022/03/23 00:55:35;;;;;;;20.83;8.02;;;8.30;49.40;;;;;;5069701;28;20043;-77
2022/03/23 00:58:02;;;;;;;17.20;7.90;;;8.20;49.30;;;;;;5085896;27;22528;-77
2022/03/23 01:00:29;;;;;;;17.50;7.57;;;8.10;49.30;;;;;;5068418;28;20051;-77
2022/03/23 01:02:59;;;;;;;17.88;7.80;;;8.10;48.80;;;;;;5070339;28;20694;-78
2022/03/23 01:05:27;;;;;;;19.52;8.23;;;8.10;48.70;;;;;;5089505;27;20046;-77
2022/03/23 01:07:54;;;;;;;16.08;7.65;;;8.20;48.70;;;;;;5072351;27;20051;-77
2022/03/23 01:10:21;;;;;;;23.10;9.02;;;8.20;48.60;;;;;;5079230;27;20153;-77
2022/03/23 01:12:49;;;;;;;17.80;8.10;;;8.20;48.40;;;;;;5079509;27;20044;-77
2022/03/23 01:15:19;;;;;;;16.95;7.50;;;8.30;48.00;;;;;;5072642;27;20167;-77
2022/03/23 01:17:48;;;;;;;20.08;8.25;;;8.40;47.60;;;;;;5090915;27;20067;-77
2022/03/23 01:20:16;;;;;;;22.52;8.20;;;8.40;47.40;;;;;;5063435;27;20240;-77
2022/03/23 01:22:44;;;;;;;25.23;8.85;;;8.30;47.50;;;;;;5070596;27;20056;-77
2022/03/23 01:25:16;;;;;;;21.42;8.10;;;8.40;47.80;;;;;;5077935;27;20099;-77
2022/03/23 01:27:44;;;;;;;15.93;7.43;;;8.40;47.50;;;;;;5057527;27;20184;-77
2022/03/23 01:30:13;;;;;;;17.20;7.78;;;8.60;46.20;;;;;;5075186;27;20810;-77
2022/03/23 01:32:42;;;;;;;13.70;7.63;;;8.70;45.80;;;;;;5071195;27;20043;-78
2022/03/23 01:35:10;;;;;;;17.60;6.82;;;8.80;45.60;;;;;;5073822;27;20054;-77
2022/03/23 01:37:38;;;;;;;20.85;8.30;;;8.90;45.10;;;;;;5070915;27;20138;-77
2022/03/23 01:40:07;;;;;;;19.10;7.13;;;9.00;45.10;;;;;;5069989;27;20141;-78
2022/03/23 01:42:36;;;;;;;16.40;7.05;;;8.90;45.10;;;;;;5060793;27;20052;-78
2022/03/23 01:45:08;;;;;;;22.63;8.00;;;8.90;44.90;;;;;;5057998;27;20051;-77
2022/03/23 01:47:36;;;;;;;18.37;7.60;;;8.80;45.90;;;;;;5070525;27;20055;-77
2022/03/23 01:50:06;;;;;;;16.83;6.43;;;8.80;45.70;;;;;;5069502;27;20048;-77
2022/03/23 01:52:33;;;;;;;16.23;7.10;;;9.00;45.80;;;;;;5053149;27;20052;-77
2022/03/23 01:55:04;;;;;;;17.58;7.57;;;8.90;45.60;;;;;;5073117;27;20086;-77
2022/03/23 01:57:34;;;;;;;17.70;6.87;;;8.80;45.60;;;;;;5060321;27;20055;-77
2022/03/23 02:00:01;;;;;;;17.00;7.85;;;9.00;45.10;;;;;;5072602;27;20043;-77
2022/03/23 02:02:40;;;;;;;20.23;7.70;;;9.00;44.30;;;;;;5074689;27;22411;-76
2022/03/23 02:05:13;;;;;;;19.17;7.30;;;9.00;44.90;;;;;;5069523;27;20047;-76
2022/03/23 02:07:46;;;;;;;17.35;7.63;;;8.90;45.50;;;;;;5070638;27;20051;-76
2022/03/23 02:10:15;;;;;;;18.98;7.55;;;8.80;45.40;;;;;;5070556;27;20048;-76
2022/03/23 02:12:51;;;;;;;16.67;7.88;;;8.80;45.40;;;;;;5071463;27;20086;-76
2022/03/23 02:15:18;;;;;;;19.10;8.63;;;8.70;45.60;;;;;;5086420;27;20047;-76
2022/03/23 02:17:46;;;;;;;22.25;9.38;;;8.70;45.50;;;;;;5070780;27;20063;-76
2022/03/23 02:20:13;;;;;;;18.05;8.15;;;8.70;45.50;;;;;;5069212;27;20043;-80
2022/03/23 02:22:41;;;;;;;18.67;7.85;;;8.50;46.30;;;;;;5056731;27;20477;-80
2022/03/23 02:25:08;;;;;;;18.60;8.07;;;8.20;46.70;;;;;;5064618;27;20062;-80
2022/03/23 02:27:40;;;;;;;19.45;8.07;;;8.00;47.20;;;;;;5075710;27;20054;-80
2022/03/23 02:30:09;;;;;;;16.35;7.05;;;8.00;47.20;;;;;;5080247;27;20055;-80
2022/03/23 02:32:37;;;;;;;17.55;7.72;;;8.00;47.10;;;;;;5072124;27;20110;-80
2022/03/23 02:35:04;;;;;;;15.20;7.03;;;7.90;47.50;;;;;;5062586;27;20127;-80
2022/03/23 02:37:31;;;;;;;19.23;7.95;;;7.80;47.70;;;;;;5062565;27;20082;-80
2022/03/23 02:39:58;;;;;;;18.52;7.10;;;7.70;48.40;;;;;;5072162;27;20062;-80
2022/03/23 02:42:25;;;;;;;14.07;6.63;;;7.40;49.60;;;;;;5091509;27;20106;-80
2022/03/23 02:44:52;;;;;;;19.90;8.55;;;7.50;49.00;;;;;;5061438;27;20047;-80
2022/03/23 02:47:22;;;;;;;23.48;7.65;;;7.40;49.20;;;;;;5063410;27;20070;-80
2022/03/23 02:49:49;;;;;;;15.68;6.57;;;7.40;49.00;;;;;;5079048;27;20136;-80
2022/03/23 02:52:16;;;;;;;17.05;7.13;;;7.50;48.90;;;;;;5079907;27;20065;-79
2022/03/23 03:03:12;;;;;;;13.98;6.85;;;7.40;49.30;;;;;;5087278;27;20092;-77
2022/03/23 03:05:39;;;;;;;15.65;6.82;;;7.00;50.90;;;;;;5070140;27;20043;-77
2022/03/23 03:10:52;;;;;;;17.08;7.60;;;6.70;51.40;;;;;;5069360;27;20044;-76
2022/03/23 03:13:19;;;;;;;18.35;7.18;;;6.80;51.40;;;;;;5087528;27;20047;-76
2022/03/23 03:15:46;;;;;;;15.85;7.63;;;6.80;51.30;;;;;;5061075;27;20159;-77
2022/03/23 03:18:14;;;;;;;17.85;7.55;;;6.70;51.60;;;;;;5088104;27;20384;-77
2022/03/23 03:20:41;;;;;;;15.93;7.10;;;6.80;51.60;;;;;;5057491;27;20127;-77
2022/03/23 03:23:11;;;;;;;16.45;6.95;;;6.90;51.20;;;;;;5086979;27;20104;-78
2022/03/23 03:25:38;;;;;;;18.05;7.57;;;7.00;50.90;;;;;;5071130;27;21098;-77
2022/03/23 03:28:05;;;;;;;20.60;7.20;;;7.00;51.10;;;;;;5053115;27;20083;-78
2022/03/23 03:30:32;;;;;;;14.90;6.78;;;6.70;51.60;;;;;;5071119;27;22426;-78
2022/03/23 03:32:59;;;;;;;16.65;6.50;;;6.40;52.20;;;;;;5051897;27;20043;-78
2022/03/23 03:35:26;;;;;;;17.65;7.38;;;6.50;52.60;;;;;;5068998;27;20048;-78
2022/03/23 03:37:54;;;;;;;19.67;7.45;;;6.50;52.30;;;;;;5068965;27;20174;-78
2022/03/23 03:40:25;;;;;;;19.65;8.05;;;6.40;52.50;;;;;;5067844;27;20138;-75
2022/03/23 03:42:52;;;;;;;17.42;7.53;;;6.30;53.00;;;;;;5085932;27;22557;-75
2022/03/23 03:45:19;;;;;;;15.07;6.45;;;6.50;52.40;;;;;;5085227;27;20048;-75
2022/03/23 03:47:46;;;;;;;18.35;7.45;;;6.60;51.90;;;;;;5084494;27;20228;-75
2022/03/23 03:50:14;;;;;;;19.08;7.22;;;6.80;52.00;;;;;;5056706;27;20058;-79
2022/03/23 03:52:41;;;;;;;18.20;6.95;;;6.70;52.00;;;;;;5054001;27;20047;-79
2022/03/23 03:55:08;;;;;;;15.65;6.55;;;6.60;52.30;;;;;;5068509;27;20820;-77
2022/03/23 03:57:35;;;;;;;13.65;6.75;;;6.60;52.60;;;;;;5069857;27;20130;-78
2022/03/23 04:00:05;;;;;;;19.33;7.75;;;6.70;52.00;;;;;;5086129;27;22447;-77
2022/03/23 04:02:38;;;;;;;17.10;7.07;;;6.60;52.20;;;;;;5087942;27;20907;-76
2022/03/23 04:05:06;;;;;;;18.50;7.47;;;6.60;52.70;;;;;;5075577;27;20047;-76
2022/03/23 04:07:33;;;;;;;19.67;7.22;;;6.50;52.90;;;;;;5075416;27;20044;-77
2022/03/23 04:10:04;;;;;;;17.85;7.50;;;6.60;52.60;;;;;;5069971;27;20799;-77
2022/03/23 04:12:31;;;;;;;19.65;7.28;;;6.60;52.40;;;;;;5067747;27;20051;-78
2022/03/23 04:14:59;;;;;;;23.58;8.38;;;6.50;52.50;;;;;;5067985;27;22410;-76
2022/03/23 04:17:26;;;;;;;18.73;7.43;;;6.40;53.00;;;;;;5066491;27;20100;-76
2022/03/23 04:19:53;;;;;;;14.63;6.85;;;6.50;53.00;;;;;;5068745;27;20055;-76
2022/03/23 04:22:22;;;;;;;18.65;6.85;;;6.60;52.40;;;;;;5057154;27;20075;-76
2022/03/23 04:24:49;;;;;;;16.48;6.50;;;6.50;52.70;;;;;;5067334;27;20054;-76
2022/03/23 04:27:17;;;;;;;20.67;7.15;;;6.60;52.50;;;;;;5067917;27;20062;-76
2022/03/23 04:29:44;;;;;;;21.35;7.40;;;6.50;53.20;;;;;;5056070;28;20162;-76
2022/03/23 04:32:11;;;;;;;21.13;8.57;;;6.50;53.40;;;;;;5070347;27;22551;-76
2022/03/23 04:34:38;;;;;;;19.27;8.98;;;6.50;53.40;;;;;;5055081;27;20040;-76
2022/03/23 04:37:05;;;;;;;17.98;7.22;;;6.40;53.60;;;;;;5068080;28;20170;-75
2022/03/23 04:39:33;;;;;;;21.25;7.80;;;6.50;53.30;;;;;;5064420;27;20087;-75
2022/03/23 04:42:00;;;;;;;20.52;8.50;;;6.60;53.10;;;;;;5051251;28;20112;-74
2022/03/23 04:44:27;;;;;;;22.55;8.95;;;6.60;53.30;;;;;;5083427;27;20067;-75
2022/03/23 04:46:54;;;;;;;19.98;7.55;;;6.50;53.00;;;;;;5085438;27;20070;-76
2022/03/23 04:49:23;;;;;;;21.25;8.85;;;6.60;53.10;;;;;;5084688;27;20131;-75
2022/03/23 04:51:51;;;;;;;21.35;7.95;;;6.50;53.30;;;;;;5066467;28;20130;-75
2022/03/23 04:54:18;;;;;;;28.83;9.20;;;6.70;52.80;;;;;;5088267;28;20146;-77
2022/03/23 04:56:45;;;;;;;25.45;9.52;;;6.80;52.70;;;;;;5086422;28;20035;-76
2022/03/23 04:59:13;;;;;;;22.50;9.93;;;6.80;52.00;;;;;;5053730;28;20120;-76
2022/03/23 05:01:41;;;;;;;25.05;9.65;;;6.70;52.90;;;;;;5050796;28;20062;-75
2022/03/23 05:04:09;;;;;;;27.50;10.05;;;6.80;53.10;;;;;;5085439;28;20039;-75
2022/03/23 05:06:36;;;;;;;24.98;9.38;;;6.80;53.40;;;;;;5066104;28;20259;-76
2022/03/23 05:09:03;;;;;;;26.83;10.48;;;6.90;52.70;;;;;;5050867;28;22510;-75
2022/03/23 05:11:30;;;;;;;27.05;10.38;;;7.00;52.10;;;;;;5067762;28;20048;-76
2022/03/23 05:13:57;;;;;;;26.25;10.30;;;7.00;52.20;;;;;;5068664;28;20048;-76
2022/03/23 05:16:24;;;;;;;25.90;10.50;;;7.00;52.40;;;;;;5057487;28;20069;-76
2022/03/23 05:18:51;;;;;;;24.40;10.85;;;7.00;52.20;;;;;;5086327;28;20757;-75
2022/03/23 05:21:18;;;;;;;28.17;11.73;;;7.00;52.40;;;;;;5083319;27;20057;-75
2022/03/23 05:23:45;;;;;;;28.98;12.63;;;7.20;52.10;;;;;;5064625;28;20047;-75
2022/03/23 05:26:12;;;;;;;27.48;12.40;;;7.30;52.00;;;;;;5067560;27;20039;-75
2022/03/23 05:28:39;;;;;;;28.98;10.32;;;7.50;51.80;;;;;;5068876;28;21143;-76
2022/03/23 05:31:06;;;;;;;29.90;11.10;;;7.60;51.20;;;;;;5067387;28;20054;-76
2022/03/23 05:33:34;;;;;;;27.50;10.45;;;7.60;51.10;;;;;;5083564;28;20046;-76
2022/03/23 05:36:01;;;;;;;27.13;10.40;;;7.60;51.10;;;;;;5048932;28;20047;-76
2022/03/23 05:38:28;;;;;;;27.95;10.90;;;7.60;51.30;;;;;;5083111;27;20058;-76
2022/03/23 05:40:56;;;;;;;27.33;11.45;;;7.60;51.80;;;;;;5082902;27;20214;-76
2022/03/23 05:43:23;;;;;;;26.52;11.48;;;7.70;51.60;;;;;;5083952;27;20059;-77
2022/03/23 05:45:50;;;;;;;26.45;11.02;;;7.80;50.90;;;;;;5064823;28;20142;-76
2022/03/23 05:48:17;;;;;;;27.50;10.00;;;7.90;50.90;;;;;;5070702;28;20047;-76
2022/03/23 05:50:44;;;;;;;27.98;10.35;;;8.10;50.10;;;;;;5069087;27;20043;-78
2022/03/23 05:53:11;;;;;;;23.73;10.27;;;8.20;49.70;;;;;;5056522;27;20117;-78
2022/03/23 05:55:38;;;;;;;24.30;9.80;;;8.40;49.60;;;;;;5078591;27;20058;-77
2022/03/23 05:58:06;;;;;;;21.63;9.52;;;8.50;49.60;;;;;;5088739;27;20134;-77
2022/03/23 06:00:34;;;;;;;24.02;9.60;;;8.50;49.70;;;;;;5088294;27;20048;-76
2022/03/23 06:03:01;;;;;;;23.67;9.85;;;8.50;50.10;;;;;;5059313;27;20059;-75
2022/03/23 06:05:28;;;;;;;26.33;9.98;;;8.50;49.20;;;;;;5054599;27;20051;-75
2022/03/23 06:07:55;;;;;;;20.77;9.18;;;8.70;48.90;;;;;;5089835;27;20043;-77
2022/03/23 06:10:22;;;;;;;21.50;8.65;;;8.80;49.00;;;;;;5076808;27;20043;-78
2022/03/23 06:12:49;;;;;;;25.35;9.82;;;8.90;48.70;;;;;;5072997;27;20180;-78
2022/03/23 06:15:18;;;;;;;17.88;8.82;;;8.90;48.70;;;;;;5088506;27;20127;-78
2022/03/23 06:17:45;;;;;;;21.40;8.80;;;8.80;48.60;;;;;;5062120;27;20168;-77
2022/03/23 06:20:13;;;;;;;20.48;8.48;;;9.00;48.90;;;;;;5073269;27;20051;-77
2022/03/23 06:22:41;;;;;;;16.20;8.15;;;9.00;48.80;;;;;;5070354;27;20043;-77
2022/03/23 06:25:09;;;;;;;16.20;7.15;;;9.10;48.80;;;;;;5070355;27;20060;-76
2022/03/23 06:27:38;;;;;;;17.23;8.15;;;9.20;49.30;;;;;;5079529;27;22490;-77
2022/03/23 06:30:06;;;;;;;20.75;8.13;;;9.30;48.10;;;;;;5077520;27;20059;-77
2022/03/23 06:32:34;;;;;;;20.85;8.23;;;9.30;48.40;;;;;;5071495;27;20054;-77
2022/03/23 06:35:03;;;;;;;20.60;7.95;;;9.40;48.50;;;;;;5056580;27;20116;-77
2022/03/23 06:37:32;;;;;;;18.67;8.13;;;9.50;48.10;;;;;;5077677;27;20047;-77
2022/03/23 06:40:00;;;;;;;19.50;8.40;;;9.60;48.40;;;;;;5071409;27;22373;-77
2022/03/23 06:42:27;;;;;;;17.27;8.38;;;9.60;48.00;;;;;;5070646;27;20043;-77
2022/03/23 06:44:54;;;;;;;18.52;8.32;;;9.70;48.50;;;;;;5071776;27;20054;-77
2022/03/23 06:47:22;;;;;;;17.70;7.97;;;9.80;48.20;;;;;;5073186;27;20045;-77
2022/03/23 06:49:49;;;;;;;23.17;8.77;;;9.80;47.90;;;;;;5072776;27;20039;-77
2022/03/23 06:52:17;;;;;;;19.80;8.38;;;9.90;47.90;;;;;;5088260;27;21332;-77
2022/03/23 06:54:44;;;;;;;18.23;9.07;;;10.10;48.30;;;;;;5077936;27;20196;-77
2022/03/23 06:57:12;;;;;;;20.63;8.93;;;10.30;48.20;;;;;;5070311;27;20171;-77
2022/03/23 06:59:39;;;;;;;15.60;9.13;;;10.30;47.90;;;;;;5070419;27;20217;-77
2022/03/23 07:02:08;;;;;;;18.33;8.00;;;10.50;47.80;;;;;;5067139;27;20079;-78
2022/03/23 07:04:35;;;;;;;13.68;7.75;;;10.60;47.10;;;;;;5053201;27;20050;-77
2022/03/23 07:07:02;;;;;;;18.42;6.97;;;10.80;46.70;;;;;;5073214;27;20514;-77
2022/03/23 07:09:32;;;;;;;14.80;7.18;;;10.90;46.00;;;;;;5085821;27;20054;-76
2022/03/23 07:12:01;;;;;;;17.50;7.65;;;10.90;46.30;;;;;;5077145;27;20674;-77
2022/03/23 07:14:30;;;;;;;17.45;7.40;;;11.00;45.50;;;;;;5073229;27;20176;-78
2022/03/23 07:16:57;;;;;;;16.30;7.30;;;11.20;45.00;;;;;;5052644;27;20048;-77
2022/03/23 07:19:24;;;;;;;14.98;7.85;;;11.30;45.00;;;;;;5069926;27;20746;-77
2022/03/23 07:21:51;;;;;;;15.77;6.47;;;11.40;44.50;;;;;;5072079;27;20698;-78
2022/03/23 07:24:19;;;;;;;14.23;7.72;;;11.50;44.50;;;;;;5054803;27;20066;-77
2022/03/23 07:26:46;;;;;;;15.57;6.60;;;11.80;43.60;;;;;;5063314;27;20479;-78
2022/03/23 07:29:35;;;;;;;13.27;6.78;;;12.00;43.70;;;;;;5066893;27;20047;-76
2022/03/23 07:32:03;;;;;;;10.63;6.10;;;12.10;42.70;;;;;;5069084;27;20095;-76
2022/03/23 07:34:30;;;;;;;16.08;7.03;;;12.20;43.20;;;;;;5085458;27;20130;-77
2022/03/23 07:36:57;;;;;;;15.35;6.63;;;12.10;43.40;;;;;;5075226;27;20079;-77
2022/03/23 07:39:25;;;;;;;17.77;7.75;;;12.20;42.20;;;;;;5089824;27;20047;-78
2022/03/23 07:41:53;;;;;;;15.27;7.82;;;12.40;41.90;;;;;;5053279;27;20047;-78
2022/03/23 07:44:21;;;;;;;13.07;6.93;;;12.50;41.50;;;;;;5060320;27;21114;-78
2022/03/23 07:46:48;;;;;;;14.98;6.45;;;12.70;41.20;;;;;;5062416;27;20480;-76
2022/03/23 07:49:15;;;;;;;13.85;6.72;;;12.80;41.30;;;;;;5066960;27;21023;-76
2022/03/23 07:51:43;;;;;;;12.45;6.10;;;12.90;40.70;;;;;;5068206;27;20819;-76
2022/03/23 07:54:10;;;;;;;18.63;6.55;;;13.10;39.80;;;;;;5065091;27;20043;-76
2022/03/23 07:56:37;;;;;;;13.20;6.47;;;13.20;40.60;;;;;;5068613;27;20118;-76
2022/03/23 07:59:04;;;;;;;14.02;6.72;;;13.30;40.50;;;;;;5074800;27;20050;-76
2022/03/23 08:02:37;;;;;;;14.07;6.18;;;13.30;40.60;;;;;;5048923;27;20055;-76
2022/03/23 08:05:05;;;;;;;10.75;5.60;;;13.60;39.50;;;;;;5073059;27;20051;-77
2022/03/23 08:07:32;;;;;;;14.50;6.13;;;13.70;39.60;;;;;;5049319;28;20055;-76
2022/03/23 08:09:59;;;;;;;14.80;7.03;;;13.80;39.50;;;;;;5064330;27;21326;-76
2022/03/23 08:12:26;;;;;;;12.73;6.22;;;13.70;40.80;;;;;;5083154;27;20078;-76
2022/03/23 08:14:53;;;;;;;14.70;6.50;;;13.80;39.90;;;;;;5083550;27;20158;-76
2022/03/23 08:17:20;;;;;;;13.98;6.50;;;13.80;40.00;;;;;;5068746;27;20055;-77
2022/03/23 08:20:32;;;;;;;14.23;5.93;;;13.90;40.50;;;;;;5056292;27;20051;-76
2022/03/23 08:22:38;;;;;;;12.65;5.78;;;14.20;39.60;;;;;;5080806;27;20047;-77
2022/03/23 08:25:05;;;;;;;13.68;5.82;;;14.40;39.00;;;;;;5047160;27;20050;-75
2022/03/23 08:27:32;;;;;;;13.52;5.30;;;14.30;39.60;;;;;;5081550;27;20161;-75
2022/03/23 08:29:59;;;;;;;12.30;5.97;;;14.50;40.00;;;;;;5066308;27;20695;-76
2022/03/23 08:32:26;;;;;;;13.75;5.97;;;14.70;40.00;;;;;;5077231;27;20040;-74
2022/03/23 08:34:53;;;;;;;13.57;5.25;;;15.00;38.30;;;;;;5070059;27;20066;-76
2022/03/23 08:37:20;;;;;;;12.68;6.32;;;15.20;38.00;;;;;;5065654;27;20061;-77
2022/03/23 08:39:48;;;;;;;16.23;5.18;;;15.30;37.80;;;;;;5068945;27;20044;-76
2022/03/23 08:42:15;;;;;;;12.52;6.22;;;15.40;37.40;;;;;;5049305;28;21060;-76
2022/03/23 08:44:42;;;;;;;13.75;5.45;;;15.50;37.50;;;;;;5065423;27;20412;-76
2022/03/23 08:47:09;;;;;;;14.27;5.63;;;15.60;38.00;;;;;;5053675;28;20625;-76
2022/03/23 08:49:36;;;;;;;13.13;6.15;;;15.70;38.40;;;;;;5065449;27;20121;-76
2022/03/23 08:52:04;;;;;;;11.90;6.00;;;15.90;38.70;;;;;;5043458;28;20244;-76
2022/03/23 08:54:31;;;;;;;12.60;5.35;;;16.00;38.00;;;;;;5074896;28;20248;-76
2022/03/23 08:56:58;;;;;;;11.98;5.68;;;16.20;37.90;;;;;;5062092;28;20051;-74
2022/03/23 08:59:25;;;;;;;11.50;5.80;;;16.30;38.20;;;;;;5082087;27;20047;-77
2022/03/23 09:01:53;;;;;;;16.75;5.95;;;16.40;37.20;;;;;;5063040;28;20055;-75
2022/03/23 09:04:20;;;;;;;15.18;6.13;;;16.50;37.40;;;;;;5082507;28;20048;-74
2022/03/23 09:06:47;;;;;;;14.18;5.60;;;16.60;37.80;;;;;;5081271;28;20055;-74
2022/03/23 09:09:14;;;;;;;12.43;5.40;;;16.60;37.30;;;;;;5052401;28;20062;-74
2022/03/23 09:11:43;;;;;;;12.27;5.43;;;16.70;37.20;;;;;;5066593;27;20043;-74
2022/03/23 09:14:12;;;;;;;14.20;6.00;;;16.70;37.10;;;;;;5080672;28;20047;-74
2022/03/23 09:16:40;;;;;;;15.35;5.55;;;16.90;37.00;;;;;;5065989;28;20054;-75
2022/03/23 09:19:09;;;;;;;9.95;5.50;;;17.00;36.60;;;;;;5065576;28;20054;-74
2022/03/23 09:21:38;;;;;;;11.75;5.63;;;17.00;36.20;;;;;;5064660;28;20061;-74
2022/03/23 09:24:11;;;;;;;50.83;17.90;;;17.00;37.20;;;;;;5082980;28;20123;-74
2022/03/23 09:26:39;;;;;;;13.02;5.28;;;17.00;36.30;;;;;;5081993;27;20458;-75
2022/03/23 09:29:07;;;;;;;14.32;5.78;;;17.10;36.20;;;;;;5066915;27;20043;-74
2022/03/23 09:31:35;;;;;;;8.95;5.10;;;17.20;37.00;;;;;;5048339;27;20043;-74
2022/03/23 09:34:03;;;;;;;11.25;5.80;;;17.30;36.70;;;;;;5085336;27;20054;-75
2022/03/23 09:39:16;;;;;;;11.38;4.80;;;17.40;36.40;;;;;;5069871;27;20055;-75
2022/03/23 09:41:47;;;;;;;10.85;4.97;;;17.60;35.60;;;;;;5073354;27;20142;-74
2022/03/23 09:44:16;;;;;;;10.15;4.40;;;17.60;34.60;;;;;;5056104;27;20519;-74
2022/03/23 09:46:43;;;;;;;10.45;4.57;;;17.70;34.50;;;;;;5048210;27;20055;-74
2022/03/23 09:49:11;;;;;;;21.25;5.82;;;17.60;32.90;;;;;;5082962;27;20916;-73
2022/03/23 09:51:39;;;;;;;11.48;4.10;;;17.70;35.10;;;;;;5061043;27;20077;-72
2022/03/23 09:54:07;;;;;;;9.45;3.65;;;17.90;33.60;;;;;;5046576;27;20043;-72
2022/03/23 09:56:34;;;;;;;10.23;3.45;;;18.00;33.80;;;;;;5056699;27;20039;-72
2022/03/23 09:59:04;;;;;;;12.57;3.90;;;17.90;33.70;;;;;;5056895;27;20056;-73
2022/03/23 10:01:31;;;;;;;9.07;4.05;;;18.00;34.20;;;;;;5071157;27;20051;-74
2022/03/23 10:04:11;;;;;;;10.20;4.20;;;18.10;33.70;;;;;;5058985;27;20051;-72
2022/03/23 10:07:26;;;;;;;10.65;3.78;;;18.20;32.90;;;;;;5053967;27;20115;-72
2022/03/23 10:10:49;;;;;;;9.30;3.65;;;18.30;33.90;;;;;;5069250;27;22385;-72
2022/03/23 10:13:55;;;;;;;9.18;3.90;;;18.30;33.90;;;;;;5057025;27;20079;-72
2022/03/23 10:16:49;;;;;;;10.90;3.58;;;18.40;31.50;;;;;;5074045;27;20236;-72
2022/03/23 10:19:17;;;;;;;13.98;3.58;;;18.40;33.20;;;;;;5058316;27;20054;-73
2022/03/23 10:21:45;;;;;;;10.20;3.72;;;18.50;33.60;;;;;;5074962;27;20870;-72
2022/03/23 10:24:11;;;;;;;9.27;4.18;;;18.60;33.70;;;;;;5067011;27;20055;-72
2022/03/23 10:26:42;;;;;;;9.35;4.53;;;18.60;33.70;;;;;;5056422;27;20051;-72
2022/03/23 10:29:22;;;;;;;11.25;3.78;;;18.70;33.40;;;;;;5074789;27;20066;-73
2022/03/23 10:32:05;;;;;;;6.05;2.78;;;18.60;31.80;;;;;;5055828;27;20236;-72
2022/03/23 10:34:39;;;;;;;15.00;4.03;;;18.80;32.10;;;;;;5076307;27;20040;-73
2022/03/23 10:37:06;;;;;;;7.57;3.72;;;18.80;32.90;;;;;;5058335;27;20055;-72
2022/03/23 10:39:33;;;;;;;7.65;2.65;;;18.90;34.80;;;;;;5077134;27;20104;-74
2022/03/23 10:42:08;;;;;;;9.02;2.85;;;19.00;32.20;;;;;;5065397;27;20043;-75
2022/03/23 10:44:35;;;;;;;6.28;2.63;;;19.00;30.40;;;;;;5060320;27;20059;-75
2022/03/23 10:47:03;;;;;;;6.18;2.75;;;19.00;30.00;;;;;;5070682;27;20055;-75
2022/03/23 10:49:41;;;;;;;12.73;2.67;;;19.10;30.70;;;;;;5053133;27;20047;-75
2022/03/23 10:52:13;;;;;;;5.82;3.15;;;19.20;29.50;;;;;;5054591;27;20043;-75
2022/03/23 10:54:53;;;;;;;9.57;3.47;;;19.10;29.20;;;;;;5055107;27;20051;-75
2022/03/23 10:57:20;;;;;;;5.15;2.78;;;19.10;30.00;;;;;;5061085;27;22490;-75
2022/03/23 10:59:48;;;;;;;6.30;2.50;;;19.20;29.30;;;;;;5067214;27;20790;-75
2022/03/23 11:02:16;;;;;;;6.82;2.97;;;19.30;29.30;;;;;;5074735;27;20051;-75
2022/03/23 11:04:45;;;;;;;7.88;3.60;;;19.30;29.20;;;;;;5056067;27;20055;-74
2022/03/23 11:07:25;;;;;;;4.78;2.67;;;19.50;30.20;;;;;;5086503;27;20047;-77
2022/03/23 11:18:17;;;;;;;4.65;2.90;;;19.50;28.30;;;;;;5069493;27;20040;-74
2022/03/23 11:21:03;;;;;;;7.45;2.35;;;19.40;29.40;;;;;;5074957;27;20039;-74
2022/03/23 11:23:31;;;;;;;5.45;2.47;;;19.50;29.80;;;;;;5054005;27;20051;-74
2022/03/23 11:26:01;;;;;;;7.05;2.83;;;19.60;29.70;;;;;;5070615;27;20039;-74
2022/03/23 11:28:31;;;;;;;11.25;3.95;;;19.70;29.60;;;;;;5072692;27;22475;-75
2022/03/23 11:31:05;;;;;;;6.30;2.90;;;19.80;29.10;;;;;;5068714;27;20565;-74
2022/03/23 11:33:34;;;;;;;7.10;3.58;;;19.70;28.90;;;;;;5079484;27;20154;-74
2022/03/23 11:36:08;;;;;;;7.82;2.88;;;19.80;29.10;;;;;;5055991;27;20043;-74
2022/03/23 11:38:37;;;;;;;383.92;33.22;;;19.90;29.30;;;;;;5072734;27;20055;-76
2022/03/23 11:41:06;;;;;;;42.40;5.65;;;20.00;29.20;;;;;;5055518;27;20058;-77
2022/03/23 11:43:34;;;;;;;392.23;32.25;;;20.20;28.90;;;;;;5050517;28;20820;-78
2022/03/23 11:46:14;;;;;;;143.52;14.50;;;20.10;28.30;;;;;;5048819;28;20135;-78
2022/03/23 11:49:07;;;;;;;20.98;4.43;;;20.10;29.20;;;;;;5048836;28;20048;-76
2022/03/23 11:51:58;;;;;;;;;;;20.10;29.50;;;;;;5046364;28;20149;-76
2022/03/23 11:57:54;;;;;;;5.75;2.45;;;20.10;27.90;;;;;;5047993;27;20064;-72
2022/03/23 12:00:24;;;;;;;7.07;2.92;;;20.30;28.40;;;;;;5037680;28;20044;-72
2022/03/23 12:02:57;;;;;;;11.90;2.80;;;20.30;28.40;;;;;;5028147;28;20052;-73
2022/03/23 12:05:31;;;;;;;5.10;2.40;;;20.50;28.60;;;;;;5032667;28;20056;-72
2022/03/23 12:08:04;;;;;;;25.85;4.60;;;20.50;27.80;;;;;;5035879;28;22704;-76
2022/03/23 12:10:42;;;;;;;5.78;3.17;;;20.60;44.10;;;;;;5034303;28;20133;-74
2022/03/23 12:13:16;;;;;;;5.43;2.40;;;20.70;46.70;;;;;;5036677;28;20063;-74
2022/03/23 12:16:01;;;;;;;6.85;2.60;;;20.40;37.10;;;;;;5038237;28;20048;-74
2022/03/23 12:18:38;;;;;;;4.82;2.25;;;20.40;29.40;;;;;;5038247;28;20044;-74
2022/03/23 12:21:10;;;;;;;6.80;2.78;;;20.40;28.40;;;;;;5038274;28;20051;-74
2022/03/23 12:23:53;;;;;;;4.43;2.23;;;20.30;39.80;;;;;;5043204;28;20095;-75
2022/03/23 12:26:34;;;;;;;8.80;3.15;;;20.10;34.90;;;;;;5034701;28;20388;-75
2022/03/23 12:29:23;;;;;;;5.10;2.55;;;20.10;29.60;;;;;;5037824;28;20051;-75
2022/03/23 12:32:02;;;;;;;16.48;3.00;;;20.10;28.00;;;;;;5035204;28;20045;-71
2022/03/23 12:34:30;;;;;;;5.38;2.15;;;20.00;34.10;;;;;;5027778;28;20045;-71
2022/03/23 12:37:14;;;;;;;7.07;2.42;;;20.10;29.60;;;;;;5027482;28;22432;-71
2022/03/23 12:39:47;;;;;;;5.45;2.65;;;20.30;28.30;;;;;;5033037;28;20189;-75
2022/03/23 12:42:15;;;;;;;7.90;2.75;;;20.40;28.40;;;;;;5056107;28;20044;-75
2022/03/23 12:44:44;;;;;;;5.18;2.70;;;20.30;26.60;;;;;;5059234;28;20531;-75
2022/03/23 12:47:15;;;;;;;5.65;2.60;;;20.40;27.50;;;;;;5062127;28;20968;-75
2022/03/23 12:58:25;;;;;;;4.90;1.90;;;20.40;27.40;;;;;;5060507;28;20171;-75
2022/03/23 13:01:07;;;;;;;11.37;2.37;;;20.50;27.30;;;;;;5060486;28;20502;-74
2022/03/23 13:03:44;;;;;;;4.55;1.75;;;20.60;27.20;;;;;;5053722;28;20080;-75
2022/03/23 13:06:20;;;;;;;5.55;1.73;;;20.60;26.60;;;;;;5058806;28;20039;-75
2022/03/23 13:08:49;;;;;;;4.95;1.98;;;20.60;26.10;;;;;;5075386;27;20044;-76
2022/03/23 13:11:25;;;;;;;3.42;1.90;;;20.60;26.40;;;;;;5070604;28;20141;-76
2022/03/23 13:13:54;;;;;;;4.15;2.15;;;20.80;26.50;;;;;;5059613;28;20040;-75
2022/03/23 13:16:22;;;;;;;4.38;1.58;;;20.80;26.40;;;;;;5077440;28;20056;-76
2022/03/23 13:18:54;;;;;;;5.07;2.03;;;21.00;26.30;;;;;;5051449;28;20043;-75
2022/03/23 13:21:23;;;;;;;6.45;2.25;;;21.00;26.30;;;;;;5060850;28;20047;-75
2022/03/23 13:23:56;;;;;;;6.97;2.25;;;21.10;27.10;;;;;;5059708;28;20060;-75
2022/03/23 13:26:26;;;;;;;6.32;2.17;;;21.10;25.40;;;;;;5056901;28;20087;-75
2022/03/23 13:28:58;;;;;;;3.65;2.10;;;21.20;25.60;;;;;;5059141;28;20052;-75
2022/03/23 13:31:34;;;;;;;5.13;2.22;;;21.20;25.90;;;;;;5060677;28;20052;-75